Rector, AR (72461)

10:44 PM CDT on March 28, 2015 (GMT -0500)
New Friendship | | Change Station
CLOSE
Current Station
Personal Weather Station
Location: Marmaduke, AR
Elevation: 266 ft
Nearby Weather Stations
Active Advisory: Freeze Warning Active Notice: Record Report

Elev 266 ft 36.17 °N, 90.41 °W | Updated 35 seconds ago

Clear
Clear
31.8 °F
Feels Like 32 °F
N
0.7
Wind Variable Wind from NW
Gusts 1.6 mph

Today
High -- | Low -- °F
--% Chance of Precip.
Yesterday
High -- | Low -- °F
Precip. -- in
6:53 AM 7:19 PM
Waxing Gibbous, 68% visible
Pressure 30.33 in
Visibility 10.0 miles
Clouds Clear
Windchill 32 °F
Dew Point 29 °F
Humidity 90%
Rainfall 0.00 in
Snow Depth Not available.
UV 0 out of 12
Pollen 8.10 out of 12
Air Quality Not available.
Flu Activity Not available.
METAR KHKA 290253Z AUTO 30003KT 10SM CLR 02/M01 A3033 RMK AO2 SLP271 T00221006 51013

More Conditions Fewer Conditions

Pressure 30.33 in
Visibility 10.0 miles
Clouds Clear
Windchill 32 °F
Dew Point 29 °F
Humidity 90%
Rainfall 0.00 in
Snow Depth Not available.
UV 0 out of 12
Pollen 8.10 out of 12
Air Quality Not available.
Flu Activity Not available.
METAR KHKA 290253Z AUTO 30003KT 10SM CLR 02/M01 A3033 RMK AO2 SLP271 T00221006 51013

More Conditions Fewer Conditions

10-Day Weather Forecast

Almanac

Astronomy

Mar. 28, 2015 Rise Set
Actual Time
Civil Twilight
Nautical Twilight
Astronomical Twilight
Moon
Length of Visible Light
Length of Day
Tomorrow will be .
, % of the Moon is Illuminated

Today's Extremes

State Highs State Lows

Community

WunderPhotos

Upload Photos

1,809,177 photos uploaded!

WunderBlogs® & News

Nearby

Air Quality

  Air Quality AQ Index Pollutant
Not available.

Snow Depth

Station Depth Elevation

Earthquake Activity

City Distance Mag. Time & Date
Minimum magnitude displayed is 2.5.

Coastal Water Temperatures

Place Temperature

Stations

Nearby Weather Stations

Station Location Temp. Windchill Dew Point Humidity Wind Precip. Elev Updated Type
                   
Freeze Warning
Statement as of 8:04 PM CDT on March 28, 2015

... Freeze warning in effect from 10 PM CDT this evening until 9
am CDT Sunday...

* temperature... 27 degrees to 32 degrees.

* Timing... late this evening through early Sunday morning.

* Impacts... sensitive vegetation may be damaged or killed.

Precautionary/preparedness actions...

A freeze warning means sub-freezing temperatures are imminent or
highly likely. These conditions will kill crops and other
sensitive vegetation.